Time;durP1;ratioP1;P1;durP2;ratioP2;P2;SDS_P1;SDS_P2;PMS_P1;PMS_P2;Temp;Humidity;BMP_temperature;BMP_pressure;BME280_temperature;BME280_humidity;BME280_pressure;Samples;Min_cycle;Max_cycle;Signal;HPM_P1;HPM_P2
2023/11/13 00:04:42;;;;;;;;;;;;;;;5.15;100.00;95189.75;10543983;27;2698;-72
2023/11/13 00:09:45;;;;;;;;;;;;;;;5.10;100.00;95195.06;10559111;27;2637;-72
2023/11/13 00:14:51;;;;;;;;;;;;;;;5.06;100.00;95207.28;10543684;27;2581;-71
2023/11/13 00:19:57;;;;;;;;;;;;;;;5.01;100.00;95213.34;10549295;27;2655;-72
2023/11/13 00:25:05;;;;;;;;;;;;;;;4.84;100.00;95224.13;10565444;27;2701;-73
2023/11/13 00:30:10;;;;;;;;;;;;;;;4.86;100.00;95224.66;10562890;27;2619;-71
2023/11/13 00:35:17;;;;;;;;;;;;;;;4.84;100.00;95224.13;10557460;27;2620;-75
2023/11/13 00:40:23;;;;;;;;;;;;;;;4.86;100.00;95227.31;10562802;27;2643;-75
2023/11/13 00:45:27;;;;;;;;;;;;;;;4.83;100.00;95238.47;10560148;27;4784;-75
2023/11/13 00:50:33;;;;;;;;;;;;;;;4.84;100.00;95242.75;10565720;27;2788;-74
2023/11/13 00:55:39;;;;;;;;;;;;;;;5.01;100.00;95253.31;10571082;27;2779;-71
2023/11/13 01:00:51;;;;;;;;;;;;;;;5.15;100.00;95235.06;10529685;27;2681;-71
2023/11/13 01:05:59;;;;;;;;;;;;;;;5.31;100.00;95218.16;10570248;27;2612;-72
2023/11/13 01:11:01;;;;;;;;;;;;;;;5.33;100.00;95218.69;10558572;27;2668;-72
2023/11/13 01:16:06;;;;;;;;;;;;;;;5.37;100.00;95216.34;10562112;27;2634;-70
2023/11/13 01:21:09;;;;;;;;;;;;;;;5.42;100.00;95209.19;10553215;27;2716;-71
2023/11/13 01:26:16;;;;;;;;;;;;;;;5.37;100.00;95209.16;10551814;27;2603;-72
2023/11/13 01:31:21;;;;;;;;;;;;;;;5.49;100.00;95224.97;10540329;27;2622;-73
2023/11/13 01:36:28;;;;;;;;;;;;;;;5.45;100.00;95231.84;10553031;28;2743;-72
2023/11/13 01:46:56;;;;;;;;;;;;;;;5.38;100.00;95215.28;10559430;28;2652;-73
2023/11/13 01:52:00;;;;;;;;;;;;;;;5.38;100.00;95201.94;10522961;28;2652;-71
2023/11/13 01:57:03;;;;;;;;;;;;;;;5.35;100.00;95210.47;10551007;28;2626;-71
2023/11/13 02:02:12;;;;;;;;;;;;;;;5.48;100.00;95195.91;10562525;28;2603;-72
2023/11/13 02:07:18;;;;;;;;;;;;;;;5.46;100.00;95203.34;10541379;28;2601;-70
2023/11/13 02:12:22;;;;;;;;;;;;;;;5.52;100.00;95197.78;10553522;28;2616;-73
2023/11/13 02:17:26;;;;;;;;;;;;;;;5.54;100.00;95205.56;10538782;28;2643;-72
2023/11/13 02:22:33;;;;;;;;;;;;;;;5.59;100.00;95202.91;10557817;28;2674;-70
2023/11/13 02:27:36;;;;;;;;;;;;;;;5.61;100.00;95196.28;10542008;28;2575;-72
2023/11/13 02:32:39;;;;;;;;;;;;;;;5.61;100.00;95196.28;10558938;28;2711;-71
2023/11/13 02:37:44;;;;;;;;;;;;;;;5.73;100.00;95185.41;10538874;28;2557;-72
2023/11/13 02:42:50;;;;;;;;;;;;;;;5.59;100.00;95168.25;10568967;27;2563;-71
2023/11/13 02:48:01;;;;;;;;;;;;;;;5.68;100.00;95178.19;10535085;27;2584;-70
2023/11/13 02:53:05;;;;;;;;;;;;;;;5.76;100.00;95166.22;10550211;27;2655;-74
2023/11/13 02:58:10;;;;;;;;;;;;;;;5.78;100.00;95164.09;10537114;27;3048;-73
2023/11/13 03:03:14;;;;;;;;;;;;;;;5.90;100.00;95156.69;10553923;27;2733;-72
2023/11/13 03:08:21;;;;;;;;;;;;;;;5.99;100.00;95143.72;10571324;27;2672;-72
2023/11/13 03:13:27;;;;;;;;;;;;;;;6.04;100.00;95146.38;10552684;27;2608;-76
2023/11/13 03:18:30;;;;;;;;;;;;;;;6.15;100.00;95147.25;10536476;27;2668;-75
2023/11/13 03:23:41;;;;;;;;;;;;;;;6.21;100.00;95147.00;10569230;27;2797;-72
2023/11/13 03:28:46;;;;;;;;;;;;;;;6.35;100.00;95143.84;10571760;27;2642;-70
2023/11/13 03:33:51;;;;;;;;;;;;;;;6.41;100.00;95150.81;10564394;27;2657;-75
2023/11/13 03:38:53;;;;;;;;;;;;;;;6.52;100.00;95138.28;10578199;27;2620;-72
2023/11/13 03:43:57;;;;;;;;;;;;;;;6.58;100.00;95140.72;10571800;27;4555;-71
2023/11/13 03:49:00;;;;;;;;;;;;;;;6.58;100.00;95135.38;10531538;27;2672;-73
2023/11/13 03:54:07;;;;;;;;;;;;;;;6.69;100.00;95128.19;10561683;27;2751;-72
2023/11/13 03:59:10;;;;;;;;;;;;;;;6.72;100.00;95133.00;10536584;27;2646;-72
2023/11/13 04:04:16;;;;;;;;;;;;;;;6.82;100.00;95135.69;10565579;27;2647;-73
2023/11/13 04:09:19;;;;;;;;;;;;;;;6.73;100.00;95113.22;10558124;27;2635;-72
2023/11/13 04:14:23;;;;;;;;;;;;;;;6.82;100.00;95117.00;10561191;27;2587;-72
2023/11/13 04:19:29;;;;;;;;;;;;;;;6.84;100.00;95117.50;10537707;27;2885;-71
2023/11/13 04:24:33;;;;;;;;;;;;;;;6.96;100.00;95117.25;10561675;27;2570;-72
2023/11/13 04:29:36;;;;;;;;;;;;;;;7.01;100.00;95122.63;10545237;27;2544;-72
2023/11/13 04:34:46;;;;;;;;;;;;;;;7.04;100.00;95114.84;10544151;27;2868;-71
2023/11/13 04:39:50;;;;;;;;;;;;;;;7.07;100.00;95123.41;10541014;27;2643;-72
2023/11/13 04:44:53;;;;;;;;;;;;;;;7.12;100.00;95128.75;10525981;27;2628;-72
2023/11/13 04:50:00;;;;;;;;;;;;;;;7.12;100.00;95121.53;10564723;27;2601;-71
2023/11/13 04:55:04;;;;;;;;;;;;;;;7.20;100.00;95131.69;10562434;27;2669;-71
2023/11/13 05:00:14;;;;;;;;;;;;;;;7.28;100.00;95135.72;10558717;27;2648;-72
2023/11/13 05:05:18;;;;;;;;;;;;;;;7.22;100.00;95132.22;10556477;27;3062;-72
2023/11/13 05:10:21;;;;;;;;;;;;;;;7.38;100.00;95138.38;10560091;27;2588;-74
2023/11/13 05:15:26;;;;;;;;;;;;;;;7.49;100.00;95131.13;10561464;27;2627;-71
2023/11/13 05:20:30;;;;;;;;;;;;;;;7.66;100.00;95118.28;10545194;27;2572;-72
2023/11/13 05:25:39;;;;;;;;;;;;;;;7.89;100.00;95130.28;10558665;27;2577;-70
2023/11/13 05:30:42;;;;;;;;;;;;;;;8.06;100.00;95132.63;10546127;27;2628;-70
2023/11/13 05:35:47;;;;;;;;;;;;;;;8.18;100.00;95137.66;10558964;28;2701;-70
2023/11/13 05:40:50;;;;;;;;;;;;;;;8.36;100.00;95140.56;10537958;28;4634;-72
2023/11/13 05:45:55;;;;;;;;;;;;;;;8.48;100.00;95145.59;10537911;28;2659;-71
2023/11/13 05:50:58;;;;;;;;;;;;;;;8.63;100.00;95153.56;10555758;28;2640;-72
2023/11/13 05:56:01;;;;;;;;;;;;;;;8.69;100.00;95150.84;10541988;28;2722;-72
2023/11/13 06:01:13;;;;;;;;;;;;;;;8.79;100.00;95156.16;10544216;28;2598;-73
2023/11/13 06:06:19;;;;;;;;;;;;;;;8.92;100.00;95155.53;10528823;28;2697;-72
2023/11/13 06:11:24;;;;;;;;;;;;;;;8.94;100.00;95159.53;10556834;28;2672;-77
2023/11/13 06:16:32;;;;;;;;;;;;;;;9.03;100.00;95156.25;10541954;27;2563;-77
2023/11/13 06:21:38;;;;;;;;;;;;;;;9.08;100.00;95149.00;10569066;27;2674;-74
2023/11/13 06:26:42;;;;;;;;;;;;;;;9.17;100.00;95150.00;10561373;27;2758;-73
2023/11/13 06:31:45;;;;;;;;;;;;;;;9.22;100.00;95162.56;10564794;27;2632;-76
2023/11/13 06:36:49;;;;;;;;;;;;;;;9.28;100.00;95169.47;10562192;27;2695;-74
2023/11/13 06:41:58;;;;;;;;;;;;;;;9.42;100.00;95159.75;10564605;27;4658;-73
2023/11/13 06:47:02;;;;;;;;;;;;;;;9.46;100.00;95170.69;10565124;27;2604;-73
2023/11/13 06:52:08;;;;;;;;;;;;;;;9.44;100.00;95172.88;10552359;27;2641;-75
2023/11/13 06:57:16;;;;;;;;;;;;;;;9.51;100.00;95170.66;10561532;27;2678;-72
2023/11/13 07:02:26;;;;;;;;;;;;;;;9.57;100.00;95164.16;10558593;27;2567;-70
2023/11/13 07:07:30;;;;;;;;;;;;;;;9.60;100.00;95182.38;10553195;27;2793;-73
2023/11/13 07:12:34;;;;;;;;;;;;;;;9.68;100.00;95195.22;10571529;27;2600;-73
2023/11/13 07:17:37;;;;;;;;;;;;;;;9.70;100.00;95197.59;10567660;27;2598;-75
2023/11/13 07:22:43;;;;;;;;;;;;;;;9.71;100.00;95193.84;10560128;27;2576;-72
2023/11/13 07:27:48;;;;;;;;;;;;;;;9.71;100.00;95207.25;10566633;27;2577;-71
2023/11/13 07:32:53;;;;;;;;;;;;;;;9.77;100.00;95224.13;10540516;27;2597;-72
2023/11/13 07:38:07;;;;;;;;;;;;;;;9.84;100.00;95236.13;10570380;27;2611;-72
2023/11/13 07:43:16;;;;;;;;;;;;;;;9.79;100.00;95232.69;10545561;27;4673;-72
2023/11/13 07:48:26;;;;;;;;;;;;;;;9.78;100.00;95223.81;10561918;27;2682;-71
2023/11/13 07:53:31;;;;;;;;;;;;;;;9.67;100.00;95225.81;10561366;27;2720;-72
2023/11/13 07:58:37;;;;;;;;;;;;;;;9.55;100.00;95228.06;10539625;27;2672;-72
2023/11/13 08:03:42;;;;;;;;;;;;;;;9.42;100.00;95239.41;10542478;27;2765;-73
2023/11/13 08:08:49;;;;;;;;;;;;;;;9.43;100.00;95246.38;10542781;27;2691;-73
2023/11/13 08:13:53;;;;;;;;;;;;;;;9.40;100.00;95254.97;10555138;27;2576;-70
2023/11/13 08:19:10;;;;;;;;;;;;;;;9.41;100.00;95257.38;10556078;27;2631;-72
2023/11/13 08:24:21;;;;;;;;;;;;;;;9.34;100.00;95251.53;10541204;27;2642;-73
2023/11/13 08:29:28;;;;;;;;;;;;;;;9.30;100.00;95263.91;10556218;27;2607;-71
2023/11/13 08:34:39;;;;;;;;;;;;;;;9.24;100.00;95256.16;10558997;27;2576;-73
2023/11/13 08:39:42;;;;;;;;;;;;;;;9.25;100.00;95265.81;10522097;27;2679;-73
2023/11/13 08:44:46;;;;;;;;;;;;;;;9.17;100.00;95281.41;10560591;27;4799;-72
2023/11/13 08:49:53;;;;;;;;;;;;;;;9.15;100.00;95294.25;10553284;27;2712;-70
2023/11/13 08:54:58;;;;;;;;;;;;;;;9.12;100.00;95300.19;10561890;27;2751;-75
2023/11/13 09:00:07;;;;;;;;;;;;;;;9.04;100.00;95299.97;10540808;27;2607;-76
2023/11/13 09:05:25;;;;;;;;;;;;;;;9.01;100.00;95295.94;10558988;27;2713;-73
2023/11/13 09:10:31;;;;;;;;;;;;;;;9.00;100.00;95297.03;10538711;27;2586;-73
2023/11/13 09:15:36;;;;;;;;;;;;;;;9.06;100.00;95293.25;10535702;27;2651;-72
2023/11/13 09:20:56;;;;;;;;;;;;;;;9.08;100.00;95296.44;10521285;27;2635;-71
2023/11/13 09:25:59;;;;;;;;;;;;;;;9.27;100.00;95303.88;10533196;28;2625;-73
2023/11/13 09:31:03;;;;;;;;;;;;;;;9.36;100.00;95296.88;10530040;27;2619;-70
2023/11/13 09:36:17;;;;;;;;;;;;;;;9.34;100.00;95296.31;10532212;28;2760;-70
2023/11/13 09:41:22;;;;;;;;;;;;;;;9.36;100.00;95299.53;10554887;28;4741;-71
2023/11/13 09:46:30;;;;;;;;;;;;;;;9.39;100.00;95301.66;10556188;28;2683;-73
2023/11/13 09:51:36;;;;;;;;;;;;;;;9.29;100.00;95309.75;10545969;27;2702;-70
2023/11/13 09:56:48;;;;;;;;;;;;;;;9.37;100.00;95307.31;10571885;27;2577;-71
2023/11/13 10:01:54;;;;;;;;;;;;;;;9.44;100.00;95282.84;10564655;27;2592;-71
2023/11/13 10:07:02;;;;;;;;;;;;;;;9.41;100.00;95272.66;10561244;27;2663;-69
2023/11/13 10:12:10;;;;;;;;;;;;;;;9.34;100.00;95259.56;10552464;27;2604;-69
2023/11/13 10:17:16;;;;;;;;;;;;;;;9.32;100.00;95258.25;10549536;27;2703;-70
2023/11/13 10:22:23;;;;;;;;;;;;;;;9.36;100.00;95251.25;10560283;27;2738;-71
2023/11/13 10:27:29;;;;;;;;;;;;;;;9.42;100.00;95242.91;10566787;27;2596;-71
2023/11/13 10:32:37;;;;;;;;;;;;;;;9.49;100.00;95239.91;10543971;27;2636;-70
2023/11/13 10:37:45;;;;;;;;;;;;;;;9.49;100.00;95229.16;10565701;27;2668;-71
2023/11/13 10:42:51;;;;;;;;;;;;;;;9.63;100.00;95234.69;10538269;27;4618;-67
2023/11/13 10:47:54;;;;;;;;;;;;;;;9.65;100.00;95222.59;10523946;27;2655;-70
2023/11/13 10:52:59;;;;;;;;;;;;;;;9.65;100.00;95222.59;10546520;27;2620;-74
2023/11/13 10:58:03;;;;;;;;;;;;;;;9.75;100.00;95208.31;10565052;27;2601;-70
2023/11/13 11:03:12;;;;;;;;;;;;;;;9.70;100.00;95201.09;10548034;27;2572;-71
2023/11/13 11:08:19;;;;;;;;;;;;;;;9.77;100.00;95178.50;10531442;27;2593;-72
2023/11/13 11:13:24;;;;;;;;;;;;;;;9.82;100.00;95178.44;10549965;27;2713;-71
2023/11/13 11:18:30;;;;;;;;;;;;;;;9.87;100.00;95175.72;10568167;27;2577;-70
2023/11/13 11:23:36;;;;;;;;;;;;;;;10.05;100.00;95166.91;10564157;27;2588;-68
2023/11/13 11:28:41;;;;;;;;;;;;;;;10.15;100.00;95158.75;10571169;27;2641;-71
2023/11/13 11:33:48;;;;;;;;;;;;;;;10.26;100.00;95141.47;10549092;27;2611;-73
2023/11/13 11:38:59;;;;;;;;;;;;;;;10.36;100.00;95145.13;10564000;27;2589;-70
2023/11/13 11:44:06;;;;;;;;;;;;;;;10.41;100.00;95131.63;10537954;27;4619;-71
2023/11/13 11:49:09;;;;;;;;;;;;;;;10.47;100.00;95136.66;10557922;27;2581;-72
2023/11/13 11:54:21;;;;;;;;;;;;;;;10.52;100.00;95127.75;10561158;27;2847;-71
2023/11/13 11:59:27;;;;;;;;;;;;;;;10.59;100.00;95130.06;10548313;27;2611;-70
2023/11/13 12:04:34;;;;;;;;;;;;;;;10.57;100.00;95130.38;10544912;27;2786;-71
2023/11/13 12:09:44;;;;;;;;;;;;;;;10.62;100.00;95126.78;10557788;27;2686;-72
2023/11/13 12:14:49;;;;;;;;;;;;;;;10.67;100.00;95118.66;10537110;27;2675;-72
2023/11/13 12:19:57;;;;;;;;;;;;;;;10.67;100.00;95106.03;10558552;27;2696;-71
2023/11/13 12:25:19;;;;;;;;;;;;;;;10.76;100.00;95098.91;10560463;27;2533;-72
2023/11/13 12:30:24;;;;;;;;;;;;;;;10.87;100.00;95088.00;10538934;27;2549;-71
2023/11/13 12:35:35;;;;;;;;;;;;;;;10.89;100.00;95073.19;10561609;27;2653;-71
2023/11/13 12:40:45;;;;;;;;;;;;;;;10.89;100.00;95088.53;10544574;27;2718;-70
2023/11/13 12:45:48;;;;;;;;;;;;;;;10.90;100.00;95074.00;10544700;27;2692;-70
2023/11/13 12:50:55;;;;;;;;;;;;;;;10.97;100.00;95077.09;10554818;27;2733;-72
2023/11/13 12:56:03;;;;;;;;;;;;;;;11.04;100.00;95080.22;10535160;27;2642;-69
2023/11/13 13:01:11;;;;;;;;;;;;;;;11.04;100.00;95069.47;10561189;27;2537;-71
2023/11/13 13:06:17;;;;;;;;;;;;;;;11.00;100.00;95073.81;10558284;27;2563;-71
2023/11/13 13:11:23;;;;;;;;;;;;;;;10.88;100.00;95060.03;10542759;27;2651;-70
2023/11/13 13:16:27;;;;;;;;;;;;;;;10.90;100.00;95058.66;10538672;27;2662;-71
2023/11/13 13:21:34;;;;;;;;;;;;;;;10.91;100.00;95043.31;10552972;27;2593;-73
2023/11/13 13:26:48;;;;;;;;;;;;;;;10.95;100.00;95041.66;10559730;27;2545;-70
2023/11/13 13:31:54;;;;;;;;;;;;;;;10.89;100.00;95029.38;10551248;27;2619;-70
2023/11/13 13:37:05;;;;;;;;;;;;;;;10.87;100.00;95028.84;10537603;28;2681;-69
2023/11/13 13:42:08;;;;;;;;;;;;;;;10.91;100.00;95008.38;10553074;28;4721;-69
2023/11/13 13:47:14;;;;;;;;;;;;;;;10.88;100.00;95001.69;10550309;28;2694;-71
2023/11/13 13:52:20;;;;;;;;;;;;;;;10.89;100.00;94986.34;10535933;28;2883;-71
2023/11/13 13:57:28;;;;;;;;;;;;;;;10.81;100.00;94993.19;10552571;28;2608;-69
2023/11/13 14:02:43;;;;;;;;;;;;;;;10.84;100.00;94995.28;10553323;28;2659;-70
2023/11/13 14:07:50;;;;;;;;;;;;;;;10.81;100.00;95001.25;10536670;28;2681;-70
2023/11/13 14:12:54;;;;;;;;;;;;;;;10.76;100.00;94999.47;10525987;28;2662;-71
2023/11/13 14:18:11;;;;;;;;;;;;;;;10.75;100.00;94997.88;10552231;27;2668;-70
2023/11/13 14:23:17;;;;;;;;;;;;;;;10.70;100.00;95000.63;10552017;28;2627;-71
2023/11/13 14:28:21;;;;;;;;;;;;;;;10.70;100.00;94984.50;10543307;28;2597;-71
2023/11/13 14:33:27;;;;;;;;;;;;;;;10.66;100.00;94996.91;10562494;28;2599;-71
2023/11/13 14:38:35;;;;;;;;;;;;;;;10.63;100.00;94989.44;10562043;27;2594;-70
2023/11/13 14:43:44;;;;;;;;;;;;;;;10.62;100.00;94987.84;10563133;27;4570;-69
2023/11/13 14:48:49;;;;;;;;;;;;;;;10.60;100.00;94975.78;10569261;27;2586;-69
2023/11/13 14:53:57;;;;;;;;;;;;;;;10.60;100.00;94971.22;10550147;27;2594;-73
2023/11/13 14:59:11;;;;;;;;;;;;;;;10.60;100.00;94975.78;10557402;27;2593;-72
2023/11/13 15:04:19;;;;;;;;;;;;;;;10.56;100.00;94972.91;10558325;27;2659;-76
2023/11/13 15:09:24;;;;;;;;;;;;;;;10.58;100.00;94959.16;10557669;27;2558;-75
2023/11/13 15:14:26;;;;;;;;;;;;;;;10.60;100.00;94949.72;10560141;27;2635;-72
2023/11/13 15:19:31;;;;;;;;;;;;;;;10.59;100.00;94958.06;10556087;27;2620;-76
2023/11/13 15:24:35;;;;;;;;;;;;;;;10.62;100.00;94949.41;10560245;27;2616;-75
2023/11/13 15:29:39;;;;;;;;;;;;;;;10.63;100.00;94932.22;10552953;27;2686;-72
2023/11/13 15:34:45;;;;;;;;;;;;;;;10.65;100.00;94928.13;10562871;27;2700;-73
2023/11/13 15:39:52;;;;;;;;;;;;;;;10.69;100.00;94929.16;10555852;27;2578;-73
2023/11/13 15:44:57;;;;;;;;;;;;;;;10.87;100.00;94918.63;10544313;27;4765;-72
2023/11/13 15:50:05;;;;;;;;;;;;;;;10.90;100.00;94912.66;10554028;27;2661;-71
2023/11/13 15:55:24;;;;;;;;;;;;;;;10.94;100.00;94903.72;10539979;27;2698;-73
2023/11/13 16:00:36;;;;;;;;;;;;;;;10.96;100.00;94898.03;10561533;27;2561;-73
2023/11/13 16:05:40;;;;;;;;;;;;;;;11.04;100.00;94897.34;10539737;27;2752;-72
2023/11/13 16:10:44;;;;;;;;;;;;;;;11.11;100.00;94903.13;10546908;27;2558;-71
2023/11/13 16:15:53;;;;;;;;;;;;;;;11.21;100.00;94892.19;10560310;27;2595;-72
2023/11/13 16:20:57;;;;;;;;;;;;;;;11.36;100.00;94875.72;10552058;27;2753;-72
2023/11/13 16:26:04;;;;;;;;;;;;;;;11.47;100.00;94878.22;10538882;27;2642;-73
2023/11/13 16:31:22;;;;;;;;;;;;;;;11.46;100.00;94888.19;10558253;27;2631;-72
2023/11/13 16:36:26;;;;;;;;;;;;;;;11.48;100.00;94890.56;10545916;27;2681;-74
2023/11/13 16:41:41;;;;;;;;;;;;;;;11.57;100.00;94899.53;10533040;27;4645;-76
2023/11/13 16:46:48;;;;;;;;;;;;;;;11.44;100.00;94901.13;10555905;27;2693;-76
2023/11/13 16:51:52;;;;;;;;;;;;;;;11.40;100.00;94899.34;10546495;27;3058;-75
2023/11/13 16:56:57;;;;;;;;;;;;;;;11.28;100.00;94903.34;10564313;27;2612;-72
2023/11/13 17:02:01;;;;;;;;;;;;;;;11.25;100.00;94913.88;10559999;27;3048;-73
2023/11/13 17:07:08;;;;;;;;;;;;;;;11.24;100.00;94918.47;10564562;27;2767;-75
2023/11/13 17:17:36;;;;;;;;;;;;;;;11.22;100.00;94930.63;10567412;27;2621;-76
2023/11/13 17:22:39;;;;;;;;;;;;;;;11.30;100.00;94933.41;10538185;27;2625;-73
2023/11/13 17:27:42;;;;;;;;;;;;;;;11.34;100.00;94933.63;10564624;27;2692;-75
2023/11/13 17:32:48;;;;;;;;;;;;;;;11.35;100.00;94924.47;10542344;27;2619;-74
2023/11/13 17:37:58;;;;;;;;;;;;;;;11.36;100.00;94934.91;10555924;27;2691;-75
2023/11/13 17:43:01;;;;;;;;;;;;;;;11.37;100.00;94949.16;10554978;28;4689;-75
2023/11/13 17:48:09;;;;;;;;;;;;;;;11.32;100.00;94950.09;10556286;28;2070;-75
2023/11/13 17:53:13;;;;;;;;;;;;;;;11.43;100.00;94969.50;10545121;28;1942;-76
2023/11/13 17:58:16;;;;;;;;;;;;;;;11.35;100.00;94964.81;10567658;28;1976;-76
2023/11/13 18:03:19;;;;;;;;;;;;;;;11.54;100.00;94948.59;10531231;28;2017;-76
2023/11/13 18:08:26;;;;;;;;;;;;;;;11.52;100.00;94956.97;10559348;28;1424;-75
2023/11/13 18:13:34;;;;;;;;;;;;;;;11.54;100.00;94943.19;10572516;27;1670;-74
2023/11/13 18:18:46;;;;;;;;;;;;;;;11.57;100.00;94937.22;10566228;28;1975;-75
2023/11/13 18:23:49;;;;;;;;;;;;;;;11.57;100.00;94927.22;10570877;28;1498;-76
2023/11/13 18:28:54;;;;;;;;;;;;;;;11.58;100.00;94918.09;10584484;28;1531;-75
2023/11/13 18:34:00;;;;;;;;;;;;;;;11.48;100.00;94883.28;10556872;28;1412;-77
2023/11/13 18:39:05;;;;;;;;;;;;;;;11.59;100.00;94882.00;10554731;27;2045;-75
2023/11/13 18:44:11;;;;;;;;;;;;;;;11.61;100.00;94879.00;10575327;27;4740;-73
2023/11/13 18:49:14;;;;;;;;;;;;;;;11.68;100.00;94892.84;10584779;27;1471;-75
2023/11/13 18:54:19;;;;;;;;;;;;;;;11.83;100.00;94911.41;10579750;27;1540;-75
2023/11/13 18:59:26;;;;;;;;;;;;;;;11.93;100.00;94905.00;10573650;27;1917;-73
2023/11/13 19:04:31;;;;;;;;;;;;;;;12.23;100.00;94873.88;10574419;28;1672;-75
2023/11/13 19:09:37;;;;;;;;;;;;;;;12.49;100.00;94870.56;10584287;27;1571;-74
2023/11/13 19:14:43;;;;;;;;;;;;;;;12.65;100.00;94871.75;10583925;27;1682;-76
2023/11/13 19:19:47;;;;;;;;;;;;;;;12.84;100.00;94877.75;10580942;28;2236;-72
2023/11/13 19:24:52;;;;;;;;;;;;;;;12.95;100.00;94873.69;10579545;27;1491;-76
2023/11/13 19:29:55;;;;;;;;;;;;;;;13.01;100.00;94887.03;10566644;27;1412;-75
2023/11/13 19:34:58;;;;;;;;;;;;;;;12.88;100.00;94873.34;10568505;27;1550;-74
2023/11/13 19:40:07;;;;;;;;;;;;;;;12.70;100.00;94844.69;10557961;27;1963;-79
2023/11/13 19:45:10;;;;;;;;;;;;;;;12.67;100.00;94875.75;10555646;27;1518;-75
2023/11/13 19:50:14;;;;;;;;;;;;;;;12.73;100.00;94862.94;10572766;27;1629;-76
2023/11/13 19:55:18;;;;;;;;;;;;;;;12.72;100.00;94855.94;10558932;27;1515;-76
2023/11/13 20:00:27;;;;;;;;;;;;;;;12.86;100.00;94839.69;10568549;27;1973;-75
2023/11/13 20:05:49;;;;;;;;;;;;;;;12.97;100.00;94855.28;10574177;27;1571;-74
2023/11/13 20:10:59;;;;;;;;;;;;;;;13.02;100.00;94848.16;10573733;28;1829;-75
2023/11/13 20:16:02;;;;;;;;;;;;;;;13.15;100.00;94844.56;10573636;27;2246;-74
2023/11/13 20:21:05;;;;;;;;;;;;;;;13.24;100.00;94842.72;10584081;27;1451;-75
2023/11/13 20:26:11;;;;;;;;;;;;;;;13.36;100.00;94829.44;10570058;27;1480;-74
2023/11/13 20:31:19;;;;;;;;;;;;;;;13.66;100.00;94843.13;10571158;27;1514;-74
2023/11/13 20:36:26;;;;;;;;;;;;;;;13.58;100.00;94836.63;10562729;27;1969;-75
2023/11/13 20:41:29;;;;;;;;;;;;;;;13.66;100.00;94848.53;10554919;27;4828;-75
2023/11/13 20:46:39;;;;;;;;;;;;;;;13.64;100.00;94819.16;10569228;27;2635;-76
2023/11/13 20:51:42;;;;;;;;;;;;;;;13.62;100.00;94853.00;10572265;27;2571;-75
2023/11/13 20:57:03;;;;;;;;;;;;;;;13.60;100.00;94857.91;10558383;27;2620;-75
2023/11/13 21:02:10;;;;;;;;;;;;;;;13.59;100.00;94854.41;10558842;27;2572;-76
2023/11/13 21:07:15;;;;;;;;;;;;;;;13.53;100.00;94864.56;10548464;27;2635;-76
2023/11/13 21:12:18;;;;;;;;;;;;;;;13.72;100.00;94839.97;10565988;27;2580;-75
2023/11/13 21:17:24;;;;;;;;;;;;;;;13.55;100.00;94836.44;10565356;28;2145;-75
2023/11/13 21:22:28;;;;;;;;;;;;;;;13.26;100.00;94837.81;10567344;28;1631;-78
2023/11/13 21:27:33;;;;;;;;;;;;;;;12.90;100.00;94846.03;10567095;28;1440;-80
2023/11/13 21:32:36;;;;;;;;;;;;;;;12.81;100.00;94846.00;10572085;28;1600;-81
2023/11/13 21:37:41;;;;;;;;;;;;;;;12.83;100.00;94827.59;10568539;28;1996;-80
2023/11/13 21:42:51;;;;;;;;;;;;;;;12.79;100.00;94834.75;10562502;28;4717;-80
2023/11/13 21:47:54;;;;;;;;;;;;;;;12.89;100.00;94830.97;10571749;27;1493;-77
2023/11/13 21:53:01;;;;;;;;;;;;;;;12.96;100.00;94807.03;10574310;28;1733;-74
2023/11/13 21:58:04;;;;;;;;;;;;;;;13.23;100.00;94816.84;10579974;27;1936;-76
2023/11/13 22:03:08;;;;;;;;;;;;;;;13.27;100.00;94825.91;10559621;27;1575;-74
2023/11/13 22:08:13;;;;;;;;;;;;;;;13.25;100.00;94791.13;10556855;28;2356;-73
2023/11/13 22:13:16;;;;;;;;;;;;;;;13.26;100.00;94802.72;10568380;28;1530;-73
2023/11/13 22:18:19;;;;;;;;;;;;;;;13.24;100.00;94800.34;10564060;27;2551;-76
2023/11/13 22:23:25;;;;;;;;;;;;;;;13.27;100.00;94798.91;10571325;27;2589;-78
2023/11/13 22:28:30;;;;;;;;;;;;;;;13.35;100.00;94816.22;10575269;27;2623;-76
2023/11/13 22:33:40;;;;;;;;;;;;;;;13.50;100.00;94835.50;10569632;27;2641;-77
2023/11/13 22:38:46;;;;;;;;;;;;;;;13.64;100.00;94818.38;10569391;27;2669;-78
2023/11/13 22:43:51;;;;;;;;;;;;;;;13.65;100.00;94868.56;10567392;27;4720;-76
2023/11/13 22:48:55;;;;;;;;;;;;;;;12.89;100.00;94849.84;10568261;27;2616;-78
2023/11/13 22:53:58;;;;;;;;;;;;;;;12.63;100.00;94876.69;10566623;27;2560;-78
2023/11/13 22:59:02;;;;;;;;;;;;;;;12.49;100.00;94868.66;10544329;27;2594;-78
2023/11/13 23:04:20;;;;;;;;;;;;;;;12.44;100.00;94866.09;10552095;27;2561;-78
2023/11/13 23:09:28;;;;;;;;;;;;;;;12.30;100.00;94852.69;10582802;27;2612;-78
2023/11/13 23:14:31;;;;;;;;;;;;;;;12.39;100.00;94869.69;10592078;27;2624;-78
2023/11/13 23:19:35;;;;;;;;;;;;;;;12.48;100.00;94847.41;10560363;27;2626;-78
2023/11/13 23:24:38;;;;;;;;;;;;;;;12.55;100.00;94863.94;10547398;27;2624;-78
2023/11/13 23:29:42;;;;;;;;;;;;;;;12.55;100.00;94874.72;10574224;27;2552;-77
2023/11/13 23:34:49;;;;;;;;;;;;;;;12.59;100.00;94859.50;10576576;27;2785;-76
2023/11/13 23:39:57;;;;;;;;;;;;;;;12.69;100.00;94857.38;10547840;27;2606;-77
2023/11/13 23:45:04;;;;;;;;;;;;;;;12.74;100.00;94874.53;10565643;27;4748;-77
2023/11/13 23:50:12;;;;;;;;;;;;;;;12.76;100.00;94875.81;10573798;27;2713;-77
2023/11/13 23:55:14;;;;;;;;;;;;;;;12.90;100.00;94865.72;10571948;27;2623;-78
